Time;durP1;ratioP1;P1;durP2;ratioP2;P2;SDS_P1;SDS_P2;PMS_P1;PMS_P2;Temp;Humidity;BMP_temperature;BMP_pressure;BME280_temperature;BME280_humidity;BME280_pressure;Samples;Min_cycle;Max_cycle;Signal;HPM_P1;HPM_P2
2021/12/13 00:02:33;;;;;;;5.33;3.80;;;2.80;99.90;;;;;;5121997;27;20266;-57
2021/12/13 00:05:38;;;;;;;6.30;4.30;;;2.90;99.90;;;;;;5123997;27;20183;-49
2021/12/13 00:08:32;;;;;;;4.17;3.80;;;2.90;99.90;;;;;;5125654;27;20252;-58
2021/12/13 00:11:21;;;;;;;8.53;5.53;;;2.90;99.90;;;;;;5132680;27;20525;-57
2021/12/13 00:14:17;;;;;;;8.93;4.43;;;2.90;99.90;;;;;;5124746;27;20184;-53
2021/12/13 00:17:12;;;;;;;6.30;4.43;;;2.90;99.90;;;;;;5126057;27;20220;-54
2021/12/13 00:20:28;;;;;;;7.50;4.53;;;2.90;99.90;;;;;;5124190;27;20199;-58
2021/12/13 00:23:21;;;;;;;11.70;4.30;;;2.80;99.90;;;;;;5123921;27;20195;-51
2021/12/13 00:26:06;;;;;;;6.50;5.03;;;2.80;99.90;;;;;;5125889;27;20215;-55
2021/12/13 00:28:50;;;;;;;5.00;3.97;;;2.80;99.90;;;;;;5124702;27;20256;-52
2021/12/13 00:31:45;;;;;;;7.13;5.43;;;2.80;99.90;;;;;;5125319;27;20266;-54
2021/12/13 00:34:40;;;;;;;7.43;4.97;;;2.80;99.90;;;;;;5127099;27;20230;-57
2021/12/13 00:37:44;;;;;;;9.33;5.10;;;2.80;99.90;;;;;;5124486;27;20303;-53
2021/12/13 00:40:37;;;;;;;5.23;3.63;;;2.80;99.90;;;;;;5124931;27;20199;-57
2021/12/13 00:43:28;;;;;;;7.17;4.50;;;2.90;99.90;;;;;;5126595;27;20245;-50
2021/12/13 00:46:15;;;;;;;7.60;3.87;;;2.90;99.90;;;;;;5125939;27;20215;-56
2021/12/13 00:49:03;;;;;;;7.43;4.00;;;2.90;99.90;;;;;;5124864;27;20245;-55
2021/12/13 00:51:51;;;;;;;7.03;3.63;;;2.90;99.90;;;;;;5125713;27;20382;-58
2021/12/13 00:54:39;;;;;;;5.90;3.10;;;2.90;99.90;;;;;;5123905;27;20205;-50
2021/12/13 00:57:29;;;;;;;5.83;3.77;;;2.90;99.90;;;;;;5124369;27;20246;-57
2021/12/13 01:00:30;;;;;;;6.73;3.57;;;2.90;99.90;;;;;;5125615;27;20252;-57
2021/12/13 01:03:34;;;;;;;6.27;4.17;;;2.90;99.90;;;;;;5124192;27;20580;-58
2021/12/13 01:06:56;;;;;;;6.73;4.37;;;2.90;99.90;;;;;;5123120;27;20645;-55
2021/12/13 01:10:07;;;;;;;8.00;4.67;;;2.90;99.90;;;;;;5125713;27;20248;-57
2021/12/13 01:12:57;;;;;;;5.13;4.07;;;2.90;99.90;;;;;;5125238;27;20198;-50
2021/12/13 01:15:50;;;;;;;6.80;4.60;;;2.90;99.90;;;;;;5123761;27;20210;-56
2021/12/13 01:19:13;;;;;;;3.93;3.53;;;2.90;99.90;;;;;;5139882;27;20188;-54
2021/12/13 01:25:44;;;;;;;5.03;4.37;;;2.90;99.90;;;;;;5125174;27;20202;-57
2021/12/13 01:28:49;;;;;;;4.30;3.87;;;3.00;99.90;;;;;;5123346;27;20204;-54
2021/12/13 01:31:39;;;;;;;7.47;3.97;;;3.00;99.90;;;;;;5125180;27;20373;-55
2021/12/13 01:34:27;;;;;;;5.00;3.87;;;3.00;99.90;;;;;;5125242;27;20191;-54
2021/12/13 01:37:16;;;;;;;6.73;4.97;;;3.00;99.90;;;;;;5122303;27;20237;-54
2021/12/13 01:40:10;;;;;;;5.47;3.97;;;3.00;99.90;;;;;;5124988;27;20195;-53
2021/12/13 01:43:11;;;;;;;6.77;4.13;;;2.90;99.90;;;;;;5124080;27;20204;-51
2021/12/13 01:45:56;;;;;;;6.13;3.60;;;3.00;99.90;;;;;;5124001;27;20329;-55
2021/12/13 01:48:45;;;;;;;4.53;3.70;;;3.00;99.90;;;;;;5124492;27;20653;-55
2021/12/13 01:51:33;;;;;;;4.93;3.67;;;3.00;99.90;;;;;;5123791;27;20259;-55
2021/12/13 01:54:20;;;;;;;7.33;4.57;;;3.00;99.90;;;;;;5122250;27;20293;-55
2021/12/13 01:57:39;;;;;;;6.73;3.77;;;3.10;99.90;;;;;;5124920;27;20215;-47
2021/12/13 02:00:33;;;;;;;7.73;5.20;;;3.00;99.90;;;;;;5125595;27;20223;-51
2021/12/13 02:03:17;;;;;;;6.60;3.83;;;3.10;99.90;;;;;;5122508;27;20249;-49
2021/12/13 02:06:03;;;;;;;7.10;4.43;;;3.10;99.90;;;;;;5124865;27;20210;-56
2021/12/13 02:08:55;;;;;;;4.20;3.73;;;3.00;99.90;;;;;;5123771;27;20219;-50
2021/12/13 02:11:40;;;;;;;4.00;2.83;;;3.00;99.90;;;;;;5137321;27;20192;-50
2021/12/13 02:14:29;;;;;;;5.57;3.00;;;3.00;99.90;;;;;;5125127;27;20203;-48
2021/12/13 02:17:22;;;;;;;4.07;3.63;;;3.00;99.90;;;;;;5122492;27;20269;-52
2021/12/13 02:23:53;;;;;;;4.77;3.03;;;3.00;99.90;;;;;;5101956;28;20216;-56
2021/12/13 02:26:40;;;;;;;3.50;3.17;;;3.00;99.90;;;;;;5088621;28;20250;-52
2021/12/13 02:29:35;;;;;;;5.50;4.30;;;3.00;99.90;;;;;;5086781;28;20697;-57
2021/12/13 02:32:25;;;;;;;4.53;3.27;;;2.90;99.90;;;;;;5088741;28;20222;-54
2021/12/13 02:35:10;;;;;;;4.53;4.00;;;2.90;99.90;;;;;;5088342;28;20374;-52
2021/12/13 02:37:57;;;;;;;4.83;3.30;;;2.90;99.90;;;;;;5086964;28;20225;-55
2021/12/13 02:40:42;;;;;;;5.17;4.13;;;2.90;99.90;;;;;;5118019;27;20208;-53
2021/12/13 02:43:32;;;;;;;6.97;3.80;;;3.00;99.90;;;;;;5088050;28;20250;-50
2021/12/13 02:46:18;;;;;;;6.03;3.33;;;3.00;99.90;;;;;;5087574;28;20187;-57
2021/12/13 02:49:06;;;;;;;3.10;2.90;;;3.00;99.90;;;;;;5089209;28;20196;-59
2021/12/13 02:51:56;;;;;;;4.43;2.87;;;2.90;99.90;;;;;;5088027;28;20231;-55
2021/12/13 02:54:44;;;;;;;8.23;3.77;;;3.00;99.90;;;;;;5115689;28;20297;-54
2021/12/13 02:57:45;;;;;;;3.67;2.87;;;3.00;99.90;;;;;;5125013;28;20272;-50
2021/12/13 03:00:55;;;;;;;5.17;3.57;;;3.10;99.90;;;;;;5123894;28;20203;-58
2021/12/13 03:03:48;;;;;;;7.23;3.73;;;3.00;99.90;;;;;;5123058;28;20199;-51
2021/12/13 03:06:41;;;;;;;7.20;4.03;;;3.00;99.90;;;;;;5124279;28;20239;-51
2021/12/13 03:09:30;;;;;;;5.10;3.10;;;3.00;99.90;;;;;;5123013;28;20276;-55
2021/12/13 03:12:16;;;;;;;4.90;3.83;;;3.00;99.90;;;;;;5122545;28;20295;-55
2021/12/13 03:15:22;;;;;;;7.13;3.83;;;3.10;99.90;;;;;;5125222;28;20204;-51
2021/12/13 03:18:15;;;;;;;4.63;3.43;;;3.10;99.90;;;;;;5087110;28;20191;-51
2021/12/13 03:21:41;;;;;;;7.30;3.60;;;3.20;99.90;;;;;;5086678;28;20285;-54
2021/12/13 03:24:35;;;;;;;3.43;2.80;;;3.20;99.90;;;;;;5087793;28;20187;-54
2021/12/13 03:27:53;;;;;;;6.53;3.20;;;3.20;99.90;;;;;;5102143;28;20196;-48
2021/12/13 03:30:48;;;;;;;5.90;2.87;;;3.30;99.90;;;;;;5105180;28;20255;-55
2021/12/13 03:33:34;;;;;;;3.93;3.27;;;3.30;99.90;;;;;;5090808;28;20220;-47
2021/12/13 03:36:52;;;;;;;3.73;3.23;;;3.30;99.90;;;;;;5093024;28;20212;-53
2021/12/13 03:39:39;;;;;;;8.07;4.13;;;3.30;99.90;;;;;;5091777;28;20226;-50
2021/12/13 03:42:35;;;;;;;4.73;3.40;;;3.30;99.90;;;;;;5091765;28;20217;-47
2021/12/13 03:45:40;;;;;;;6.43;3.37;;;3.20;99.90;;;;;;5093486;28;20204;-56
2021/12/13 03:48:26;;;;;;;6.07;3.83;;;3.20;99.90;;;;;;5099544;27;20208;-58
2021/12/13 03:51:20;;;;;;;7.50;3.20;;;3.20;99.90;;;;;;5126727;27;20234;-48
2021/12/13 03:54:11;;;;;;;5.63;3.53;;;3.20;99.90;;;;;;5142776;27;20210;-52
2021/12/13 03:56:58;;;;;;;6.13;4.40;;;3.20;99.90;;;;;;5126642;27;20242;-55
2021/12/13 03:59:45;;;;;;;4.70;3.47;;;3.20;99.90;;;;;;5127173;27;20191;-52
2021/12/13 04:02:37;;;;;;;9.80;4.67;;;3.20;99.90;;;;;;5128966;27;20233;-59
2021/12/13 04:05:25;;;;;;;5.77;4.50;;;3.20;99.90;;;;;;5127147;27;20249;-59
2021/12/13 04:08:12;;;;;;;7.23;5.00;;;3.20;99.90;;;;;;5126535;27;20243;-55
2021/12/13 04:11:01;;;;;;;8.17;5.30;;;3.10;99.90;;;;;;5128191;27;20612;-55
2021/12/13 04:13:55;;;;;;;6.17;3.50;;;3.20;99.90;;;;;;5140882;27;20199;-56
2021/12/13 04:17:03;;;;;;;10.43;5.37;;;3.20;99.90;;;;;;5127490;27;20655;-48
2021/12/13 04:19:50;;;;;;;6.93;3.93;;;3.20;99.90;;;;;;5127872;27;20198;-59
2021/12/13 04:22:37;;;;;;;8.13;5.10;;;3.20;99.90;;;;;;5126341;27;20184;-58
2021/12/13 04:25:35;;;;;;;9.70;5.17;;;3.20;99.90;;;;;;5126689;27;20194;-59
2021/12/13 04:28:33;;;;;;;4.70;3.43;;;3.30;99.90;;;;;;5127703;27;20187;-52
2021/12/13 04:31:24;;;;;;;5.23;4.03;;;3.30;99.90;;;;;;5125933;27;20322;-54
2021/12/13 04:34:08;;;;;;;8.80;4.30;;;3.30;99.90;;;;;;5140344;27;20191;-53
2021/12/13 04:36:57;;;;;;;8.83;4.50;;;3.30;99.90;;;;;;5127409;27;20279;-56
2021/12/13 04:39:45;;;;;;;6.40;3.53;;;3.30;99.90;;;;;;5125008;27;20309;-53
2021/12/13 04:42:30;;;;;;;5.40;3.93;;;3.40;99.90;;;;;;5126205;27;20227;-57
2021/12/13 04:45:21;;;;;;;4.27;2.50;;;3.40;99.90;;;;;;5127670;27;20192;-54
2021/12/13 04:48:12;;;;;;;6.90;3.50;;;3.30;99.90;;;;;;5124785;27;20249;-55
2021/12/13 04:51:07;;;;;;;4.17;3.67;;;3.30;99.90;;;;;;5126335;27;20231;-51
2021/12/13 04:53:57;;;;;;;7.23;3.90;;;3.20;99.90;;;;;;5141017;27;20308;-53
2021/12/13 04:56:43;;;;;;;4.50;3.17;;;3.20;99.90;;;;;;5124532;27;20287;-52
2021/12/13 04:59:29;;;;;;;5.17;3.00;;;3.10;99.90;;;;;;5125889;27;20203;-55
2021/12/13 05:02:14;;;;;;;10.77;3.57;;;3.20;99.90;;;;;;5125834;27;20248;-56
2021/12/13 05:05:02;;;;;;;5.70;3.00;;;3.10;99.90;;;;;;5124503;27;20187;-53
2021/12/13 05:07:50;;;;;;;4.73;3.43;;;3.10;99.90;;;;;;5126683;27;20192;-52
2021/12/13 05:10:36;;;;;;;5.87;3.83;;;3.10;99.90;;;;;;5125245;27;20212;-51
2021/12/13 05:13:24;;;;;;;5.57;3.80;;;3.10;99.90;;;;;;5124481;27;20267;-51
2021/12/13 05:16:10;;;;;;;5.07;3.43;;;3.10;99.90;;;;;;5126911;27;20224;-57
2021/12/13 05:18:57;;;;;;;3.80;3.27;;;3.10;99.90;;;;;;5123066;27;20184;-55
2021/12/13 05:21:47;;;;;;;4.53;3.13;;;3.00;99.90;;;;;;5123779;27;20203;-55
2021/12/13 05:24:40;;;;;;;6.97;3.93;;;3.00;99.90;;;;;;5124243;27;20223;-55
2021/12/13 05:27:34;;;;;;;8.30;3.07;;;3.00;99.90;;;;;;5124188;27;20267;-54
2021/12/13 05:30:23;;;;;;;9.47;3.93;;;3.10;99.90;;;;;;5132283;27;20219;-53
2021/12/13 05:33:10;;;;;;;3.30;2.80;;;3.10;99.90;;;;;;5132054;27;20292;-56
2021/12/13 05:35:58;;;;;;;6.60;3.93;;;3.10;99.90;;;;;;5139667;27;20321;-56
2021/12/13 05:38:45;;;;;;;3.47;2.67;;;3.10;99.90;;;;;;5132181;27;20203;-60
2021/12/13 05:41:31;;;;;;;9.90;3.87;;;3.10;99.90;;;;;;5134629;27;20183;-57
2021/12/13 05:44:24;;;;;;;3.70;2.97;;;3.10;99.90;;;;;;5134814;27;20187;-60
2021/12/13 05:47:26;;;;;;;5.40;2.93;;;3.10;99.90;;;;;;5133503;27;20239;-57
2021/12/13 05:50:11;;;;;;;6.77;3.20;;;3.10;99.90;;;;;;5129740;27;20198;-59
2021/12/13 05:53:10;;;;;;;5.97;3.17;;;3.20;99.90;;;;;;5131285;27;20223;-57
2021/12/13 05:55:57;;;;;;;3.80;3.40;;;3.20;99.90;;;;;;5133573;27;20958;-59
2021/12/13 05:58:58;;;;;;;4.97;3.57;;;3.20;99.90;;;;;;5125517;27;20195;-56
2021/12/13 06:01:52;;;;;;;3.77;2.67;;;3.20;99.90;;;;;;5134473;27;20195;-55
2021/12/13 06:04:57;;;;;;;5.77;2.93;;;3.30;99.90;;;;;;5136644;27;20321;-55
2021/12/13 06:07:42;;;;;;;3.83;2.77;;;3.20;99.90;;;;;;5125352;27;20187;-60
2021/12/13 06:10:50;;;;;;;5.73;3.07;;;3.30;99.90;;;;;;5131392;27;20203;-56
2021/12/13 06:13:43;;;;;;;4.07;3.20;;;3.30;99.90;;;;;;5132919;27;20187;-61
2021/12/13 06:16:49;;;;;;;5.27;3.07;;;3.40;99.90;;;;;;5125615;27;20219;-59
2021/12/13 06:19:36;;;;;;;7.40;3.67;;;3.40;99.90;;;;;;5121950;27;20194;-53
2021/12/13 06:22:24;;;;;;;5.67;2.80;;;3.30;99.90;;;;;;5123459;27;20245;-55
2021/12/13 06:25:15;;;;;;;5.53;3.40;;;3.30;99.90;;;;;;5125256;27;20198;-57
2021/12/13 06:28:01;;;;;;;5.17;3.57;;;3.40;99.90;;;;;;5124419;27;20195;-60
2021/12/13 06:30:53;;;;;;;4.43;3.03;;;3.40;99.90;;;;;;5124035;27;20207;-56
2021/12/13 06:33:47;;;;;;;4.53;3.10;;;3.50;99.90;;;;;;5124980;27;20190;-51
2021/12/13 06:36:47;;;;;;;5.23;2.63;;;3.40;99.90;;;;;;5122629;27;20222;-55
2021/12/13 06:39:31;;;;;;;4.23;2.80;;;3.50;99.90;;;;;;5123632;27;20192;-52
2021/12/13 06:42:16;;;;;;;4.57;3.37;;;3.50;99.90;;;;;;5124581;27;20196;-60
2021/12/13 06:45:00;;;;;;;6.53;3.07;;;3.50;99.90;;;;;;5122805;27;20251;-61
2021/12/13 06:47:51;;;;;;;7.63;3.80;;;3.50;99.90;;;;;;5124980;27;20279;-52
2021/12/13 06:50:38;;;;;;;5.30;3.57;;;3.50;99.90;;;;;;5124779;28;20350;-59
2021/12/13 06:53:22;;;;;;;4.23;2.50;;;3.60;99.90;;;;;;5122809;28;20207;-55
2021/12/13 06:56:23;;;;;;;5.63;3.37;;;3.50;99.90;;;;;;5124422;28;20352;-58
2021/12/13 06:59:14;;;;;;;5.60;3.13;;;3.50;99.90;;;;;;5123805;28;20248;-58
2021/12/13 07:02:12;;;;;;;3.80;2.63;;;3.40;99.90;;;;;;5122685;27;20207;-57
2021/12/13 07:05:03;;;;;;;3.87;2.97;;;3.50;99.90;;;;;;5128801;27;20264;-57
2021/12/13 07:08:05;;;;;;;5.33;3.73;;;3.50;99.90;;;;;;5127559;27;20201;-57
2021/12/13 07:10:53;;;;;;;6.10;3.73;;;3.40;99.90;;;;;;5127158;27;20183;-54
2021/12/13 07:13:59;;;;;;;5.67;4.57;;;3.50;99.90;;;;;;5128666;27;20187;-53
2021/12/13 07:16:50;;;;;;;6.53;3.23;;;3.50;99.90;;;;;;5127635;27;20286;-58
2021/12/13 07:19:34;;;;;;;5.97;4.17;;;3.50;99.90;;;;;;5127293;27;20198;-56
2021/12/13 07:22:26;;;;;;;8.20;4.20;;;3.50;99.90;;;;;;5127875;27;20248;-56
2021/12/13 07:25:17;;;;;;;5.33;4.07;;;3.50;99.90;;;;;;5127565;27;20199;-60
2021/12/13 07:28:04;;;;;;;11.73;4.53;;;3.60;99.90;;;;;;5127219;27;20203;-58
2021/12/13 07:30:48;;;;;;;8.33;4.13;;;3.60;99.90;;;;;;5127791;27;20271;-58
2021/12/13 07:33:40;;;;;;;6.73;3.63;;;3.50;99.90;;;;;;5127292;27;20260;-56
2021/12/13 07:36:29;;;;;;;8.97;4.57;;;3.50;99.90;;;;;;5125922;27;20265;-57
2021/12/13 07:39:15;;;;;;;4.07;2.90;;;3.60;99.90;;;;;;5128384;27;20207;-54
2021/12/13 07:42:06;;;;;;;6.50;3.80;;;3.60;99.90;;;;;;5126933;27;20203;-58
2021/12/13 07:44:50;;;;;;;4.70;3.07;;;3.50;99.90;;;;;;5126630;27;20195;-54
2021/12/13 07:47:37;;;;;;;4.50;3.27;;;3.50;99.90;;;;;;5128954;27;20195;-55
2021/12/13 07:50:22;;;;;;;4.70;3.20;;;3.60;99.90;;;;;;5127099;27;20260;-54
2021/12/13 07:53:13;;;;;;;5.03;3.50;;;3.60;99.90;;;;;;5127198;27;20196;-57
2021/12/13 07:55:57;;;;;;;3.97;3.20;;;3.60;99.90;;;;;;5128166;27;20283;-55
2021/12/13 07:58:49;;;;;;;6.27;3.20;;;3.70;99.90;;;;;;5126344;27;20203;-57
2021/12/13 08:01:45;;;;;;;6.80;3.40;;;3.70;99.90;;;;;;5127254;27;20221;-56
2021/12/13 08:05:01;;;;;;;4.40;3.30;;;3.60;99.90;;;;;;5127009;27;20196;-49
2021/12/13 08:07:53;;;;;;;5.90;3.73;;;3.60;99.90;;;;;;5127018;27;20198;-51
2021/12/13 08:10:41;;;;;;;4.27;2.83;;;3.60;99.90;;;;;;5126564;27;20203;-55
2021/12/13 08:13:31;;;;;;;4.50;2.37;;;3.60;99.90;;;;;;5127557;27;20326;-54
2021/12/13 08:16:32;;;;;;;4.60;3.17;;;3.70;99.90;;;;;;5125596;27;20235;-59
2021/12/13 08:19:26;;;;;;;5.77;2.57;;;3.70;99.90;;;;;;5125893;27;20241;-52
2021/12/13 08:22:17;;;;;;;8.80;4.47;;;3.70;99.90;;;;;;5127802;27;20277;-54
2021/12/13 08:25:13;;;;;;;4.40;2.47;;;3.80;99.90;;;;;;5126002;27;20279;-60
2021/12/13 08:28:03;;;;;;;5.77;3.40;;;3.80;99.90;;;;;;5125828;27;20244;-53
2021/12/13 08:30:56;;;;;;;2.53;2.10;;;3.80;99.90;;;;;;5127382;27;20203;-51
2021/12/13 08:33:45;;;;;;;5.43;3.13;;;4.00;99.90;;;;;;5126553;27;20291;-52
2021/12/13 08:36:42;;;;;;;5.77;3.10;;;4.00;99.90;;;;;;5125985;27;20218;-51
2021/12/13 08:39:33;;;;;;;7.63;3.80;;;4.00;99.90;;;;;;5127317;27;20191;-58
2021/12/13 08:42:21;;;;;;;7.47;3.50;;;3.90;99.90;;;;;;5125569;27;20257;-51
2021/12/13 08:45:24;;;;;;;6.70;3.30;;;4.00;99.90;;;;;;5126501;27;20199;-52
2021/12/13 08:48:16;;;;;;;4.23;2.80;;;4.10;99.90;;;;;;5127518;27;20244;-50
2021/12/13 08:51:02;;;;;;;5.97;2.77;;;4.10;99.90;;;;;;5125856;27;20236;-57
2021/12/13 08:53:58;;;;;;;4.40;3.40;;;4.20;99.90;;;;;;5126120;27;20204;-50
2021/12/13 08:56:50;;;;;;;7.43;4.10;;;4.20;99.90;;;;;;5126671;27;20276;-56
2021/12/13 08:59:45;;;;;;;3.90;2.83;;;4.20;99.90;;;;;;5125456;27;20204;-58
2021/12/13 09:02:37;;;;;;;4.43;3.30;;;4.20;99.90;;;;;;5126064;27;20196;-52
2021/12/13 09:05:27;;;;;;;3.17;2.67;;;4.20;99.90;;;;;;5126634;27;20187;-60
2021/12/13 09:08:15;;;;;;;6.57;2.70;;;4.30;99.90;;;;;;5125491;27;20196;-53
2021/12/13 09:11:25;;;;;;;5.37;3.20;;;4.30;99.90;;;;;;5125395;27;20187;-58
2021/12/13 09:14:28;;;;;;;5.73;2.37;;;4.40;99.90;;;;;;5126404;27;20289;-57
2021/12/13 09:17:21;;;;;;;5.40;2.37;;;4.40;99.90;;;;;;5125404;27;20248;-56
2021/12/13 09:20:25;;;;;;;4.90;2.87;;;4.60;99.90;;;;;;5126434;27;20276;-56
2021/12/13 09:23:16;;;;;;;6.30;3.10;;;4.60;99.90;;;;;;5126465;27;20207;-55
2021/12/13 09:26:11;;;;;;;5.23;3.80;;;4.40;99.90;;;;;;5123943;27;20366;-57
2021/12/13 09:29:01;;;;;;;4.10;3.47;;;4.40;99.90;;;;;;5124705;27;20188;-60
2021/12/13 09:31:51;;;;;;;3.53;2.13;;;4.60;99.90;;;;;;5125903;27;20183;-60
2021/12/13 09:34:36;;;;;;;8.53;3.33;;;4.90;99.90;;;;;;5125430;27;20220;-58
2021/12/13 09:37:21;;;;;;;5.57;3.27;;;4.70;99.90;;;;;;5124770;27;20239;-58
2021/12/13 09:40:07;;;;;;;3.07;2.77;;;4.80;99.90;;;;;;5126334;27;20228;-57
2021/12/13 09:42:56;;;;;;;6.77;2.70;;;4.80;99.90;;;;;;5124679;27;20196;-61
2021/12/13 09:45:48;;;;;;;1.67;1.50;;;4.90;99.90;;;;;;5124244;27;20200;-56
2021/12/13 09:48:41;;;;;;;3.83;3.03;;;5.00;99.90;;;;;;5125083;27;20284;-59
2021/12/13 09:51:32;;;;;;;3.20;2.63;;;4.90;99.90;;;;;;5124767;27;20231;-60
2021/12/13 09:54:20;;;;;;;4.80;2.80;;;4.80;99.90;;;;;;5124331;27;20233;-59
2021/12/13 09:57:09;;;;;;;3.03;2.17;;;4.90;99.90;;;;;;5124816;27;20592;-60
2021/12/13 09:59:56;;;;;;;4.43;2.77;;;4.90;99.90;;;;;;5123691;27;20203;-58
2021/12/13 10:02:44;;;;;;;4.10;3.47;;;4.90;99.90;;;;;;5124976;27;20215;-60
2021/12/13 10:05:34;;;;;;;2.53;2.13;;;5.00;99.90;;;;;;5124581;27;20230;-58
2021/12/13 10:08:26;;;;;;;3.67;3.13;;;4.90;99.90;;;;;;5123022;27;20199;-61
2021/12/13 10:11:17;;;;;;;3.20;1.70;;;4.90;99.90;;;;;;5124598;27;20227;-57
2021/12/13 10:14:04;;;;;;;6.97;3.23;;;4.90;99.90;;;;;;5124032;27;20240;-59
2021/12/13 10:16:53;;;;;;;3.23;2.63;;;4.90;99.90;;;;;;5123137;27;20296;-60
2021/12/13 10:19:45;;;;;;;4.07;2.37;;;4.90;99.90;;;;;;5124785;27;20241;-60
2021/12/13 10:22:32;;;;;;;3.57;2.73;;;4.90;99.90;;;;;;5124112;27;20246;-60
2021/12/13 10:25:30;;;;;;;4.03;2.37;;;4.80;99.90;;;;;;5121071;27;20324;-51
2021/12/13 10:28:20;;;;;;;9.27;2.90;;;4.80;99.90;;;;;;5121277;27;20236;-52
2021/12/13 10:31:18;;;;;;;6.27;2.87;;;4.90;99.90;;;;;;5122345;27;20183;-50
2021/12/13 10:34:13;;;;;;;2.70;2.43;;;5.00;99.90;;;;;;5128203;27;20227;-58
2021/12/13 10:37:12;;;;;;;4.03;2.57;;;5.00;99.90;;;;;;5116166;27;20223;-53
2021/12/13 10:40:01;;;;;;;3.77;2.90;;;5.10;99.90;;;;;;5125665;27;20199;-56
2021/12/13 10:43:02;;;;;;;5.73;2.60;;;5.00;99.90;;;;;;5116741;27;20230;-48
2021/12/13 10:45:59;;;;;;;2.63;2.13;;;4.90;99.90;;;;;;5121810;27;20210;-51
2021/12/13 10:48:47;;;;;;;4.40;2.43;;;5.00;99.90;;;;;;5122011;27;20179;-57
2021/12/13 10:51:38;;;;;;;4.17;2.37;;;5.00;99.90;;;;;;5116401;27;20269;-57
2021/12/13 10:54:30;;;;;;;3.00;2.03;;;5.00;99.90;;;;;;5121804;27;20213;-55
2021/12/13 10:57:23;;;;;;;2.47;2.27;;;5.30;99.90;;;;;;5121732;27;20266;-56
2021/12/13 11:00:13;;;;;;;3.50;2.90;;;5.30;99.90;;;;;;5151584;27;20217;-55
2021/12/13 11:03:04;;;;;;;7.33;3.73;;;5.40;99.90;;;;;;5124651;27;20192;-58
2021/12/13 11:05:49;;;;;;;4.43;2.77;;;5.50;99.90;;;;;;5119387;27;20192;-52
2021/12/13 11:08:41;;;;;;;2.97;1.87;;;5.60;99.90;;;;;;5124797;27;20179;-54
2021/12/13 11:11:30;;;;;;;6.10;2.57;;;5.70;99.90;;;;;;5115610;27;20180;-53
2021/12/13 11:14:17;;;;;;;5.97;2.77;;;5.60;99.90;;;;;;5118379;27;20250;-53
2021/12/13 11:17:07;;;;;;;3.43;2.93;;;5.20;99.90;;;;;;5120090;27;20214;-54
2021/12/13 11:19:55;;;;;;;3.67;2.53;;;5.30;99.90;;;;;;5119907;27;20186;-58
2021/12/13 11:22:42;;;;;;;3.10;2.53;;;5.40;99.90;;;;;;5114856;27;20199;-59
2021/12/13 11:25:49;;;;;;;2.17;1.93;;;5.60;99.90;;;;;;5115261;27;20217;-57
2021/12/13 11:28:35;;;;;;;3.60;2.60;;;5.50;99.90;;;;;;5113937;27;20263;-55
2021/12/13 11:31:32;;;;;;;5.83;3.57;;;5.50;99.90;;;;;;5107728;27;20198;-54
2021/12/13 11:34:44;;;;;;;6.07;2.97;;;5.70;99.90;;;;;;5108895;27;20602;-50
2021/12/13 11:37:56;;;;;;;2.67;2.47;;;5.80;99.90;;;;;;5121306;27;20272;-51
2021/12/13 11:41:18;;;;;;;2.63;2.03;;;5.90;99.90;;;;;;5119437;27;20219;-55
2021/12/13 11:44:26;;;;;;;3.63;2.20;;;5.90;99.90;;;;;;5104700;27;20210;-51
2021/12/13 11:47:29;;;;;;;3.20;2.70;;;5.90;99.90;;;;;;5120008;27;20227;-53
2021/12/13 11:50:32;;;;;;;3.60;2.47;;;6.00;99.90;;;;;;5134166;27;20203;-58
2021/12/13 11:53:41;;;;;;;3.67;1.93;;;5.90;99.90;;;;;;5123893;27;20275;-53
2021/12/13 11:56:53;;;;;;;2.40;1.77;;;5.80;99.90;;;;;;5122023;27;20227;-53
2021/12/13 11:59:51;;;;;;;3.57;2.97;;;5.90;99.90;;;;;;5118585;27;20199;-50
2021/12/13 12:02:57;;;;;;;1.87;1.70;;;5.90;99.90;;;;;;5129017;27;20248;-58
2021/12/13 12:06:19;;;;;;;3.30;2.43;;;5.90;99.90;;;;;;5112432;27;20228;-50
2021/12/13 12:09:22;;;;;;;3.33;3.03;;;5.90;99.90;;;;;;5136437;27;20232;-51
2021/12/13 12:12:40;;;;;;;4.83;2.33;;;5.80;99.90;;;;;;5108067;27;20284;-53
2021/12/13 12:15:27;;;;;;;2.97;2.73;;;5.80;99.90;;;;;;5117460;27;20655;-55
2021/12/13 12:18:20;;;;;;;4.23;2.60;;;5.80;99.90;;;;;;5117791;27;20230;-54
2021/12/13 12:21:45;;;;;;;5.27;2.73;;;5.70;99.90;;;;;;5123727;27;20211;-53
2021/12/13 12:24:37;;;;;;;8.57;5.53;;;5.70;99.90;;;;;;5117598;27;20195;-54
2021/12/13 12:27:32;;;;;;;5.70;3.60;;;5.70;99.90;;;;;;5117960;27;20284;-53
2021/12/13 12:30:23;;;;;;;2.90;1.83;;;5.70;99.90;;;;;;5126425;27;20250;-52
2021/12/13 12:33:10;;;;;;;2.60;2.07;;;5.80;99.90;;;;;;5118516;27;20199;-54
2021/12/13 12:35:56;;;;;;;5.43;3.80;;;5.90;99.90;;;;;;5116299;27;20187;-57
2021/12/13 12:38:59;;;;;;;6.10;3.03;;;5.80;99.90;;;;;;5122393;27;20318;-55
2021/12/13 12:42:13;;;;;;;4.93;3.50;;;5.80;99.90;;;;;;5123523;27;20187;-53
2021/12/13 12:45:21;;;;;;;5.17;3.80;;;5.80;99.90;;;;;;5120808;27;20230;-51
2021/12/13 12:48:29;;;;;;;6.57;3.80;;;5.70;99.90;;;;;;5117966;27;20207;-51
2021/12/13 12:51:25;;;;;;;3.60;3.07;;;5.80;99.90;;;;;;5117545;27;20227;-52
2021/12/13 12:54:14;;;;;;;3.50;2.80;;;5.80;99.90;;;;;;5121269;27;20214;-56
2021/12/13 12:56:59;;;;;;;6.10;3.47;;;5.70;99.90;;;;;;5122190;27;20295;-57
2021/12/13 12:59:44;;;;;;;4.43;3.47;;;5.90;99.90;;;;;;5136324;27;20204;-54
2021/12/13 13:02:31;;;;;;;4.70;2.87;;;5.80;99.90;;;;;;5112685;27;20241;-53
2021/12/13 13:05:18;;;;;;;4.20;2.90;;;5.70;99.90;;;;;;5117421;27;20253;-55
2021/12/13 13:08:04;;;;;;;5.93;3.30;;;5.80;99.90;;;;;;5129203;27;20273;-48
2021/12/13 13:10:53;;;;;;;4.90;3.03;;;5.80;99.90;;;;;;5107709;27;20199;-56
2021/12/13 13:13:40;;;;;;;4.40;2.97;;;5.90;99.90;;;;;;5129609;27;20206;-48
2021/12/13 13:16:35;;;;;;;3.00;2.70;;;5.90;99.90;;;;;;5122000;27;20227;-50
2021/12/13 13:19:36;;;;;;;3.67;2.70;;;5.80;99.90;;;;;;5124024;27;20206;-50
2021/12/13 13:22:29;;;;;;;4.90;3.27;;;5.90;99.90;;;;;;5123127;27;20212;-47
2021/12/13 13:25:33;;;;;;;4.73;3.00;;;5.90;99.90;;;;;;5122245;27;20279;-60
2021/12/13 13:28:33;;;;;;;4.53;2.73;;;6.00;99.90;;;;;;5111916;27;20210;-51
2021/12/13 13:31:42;;;;;;;6.50;3.50;;;6.10;99.90;;;;;;5115594;27;20244;-55
2021/12/13 13:34:38;;;;;;;4.97;3.00;;;6.10;99.90;;;;;;5111373;27;20219;-51
2021/12/13 13:37:36;;;;;;;5.57;3.27;;;6.10;99.90;;;;;;5125278;27;20284;-56
2021/12/13 13:40:24;;;;;;;5.03;2.60;;;6.00;99.90;;;;;;5117322;27;20191;-53
2021/12/13 13:43:11;;;;;;;4.03;2.97;;;6.00;99.90;;;;;;5120293;27;20229;-60
2021/12/13 13:45:56;;;;;;;4.13;2.37;;;6.00;99.90;;;;;;5119140;27;20187;-58
2021/12/13 13:48:42;;;;;;;3.53;2.43;;;6.00;99.90;;;;;;5112275;27;20210;-60
2021/12/13 13:51:26;;;;;;;5.60;2.97;;;6.00;99.90;;;;;;5119305;27;20270;-47
2021/12/13 13:54:10;;;;;;;5.23;2.80;;;6.10;99.90;;;;;;5116642;27;20268;-54
2021/12/13 13:56:56;;;;;;;7.10;2.67;;;6.10;99.90;;;;;;5116422;27;20351;-57
2021/12/13 13:59:42;;;;;;;4.37;2.97;;;6.00;99.90;;;;;;5120937;27;20305;-55
2021/12/13 14:02:36;;;;;;;3.87;2.77;;;6.00;99.90;;;;;;5122291;27;20207;-61
2021/12/13 14:05:21;;;;;;;5.67;3.00;;;5.90;99.90;;;;;;5115337;27;20187;-53
2021/12/13 14:08:25;;;;;;;4.67;2.20;;;5.90;99.90;;;;;;5113342;27;20243;-57
2021/12/13 14:11:15;;;;;;;3.10;2.63;;;6.00;99.90;;;;;;5104565;27;20214;-58
2021/12/13 14:14:00;;;;;;;2.27;1.73;;;6.00;99.90;;;;;;5121339;27;20270;-59
2021/12/13 14:16:48;;;;;;;3.03;2.27;;;6.00;99.90;;;;;;5131308;27;20275;-60
2021/12/13 14:19:44;;;;;;;3.13;2.33;;;5.90;99.90;;;;;;5119787;27;20210;-59
2021/12/13 14:22:33;;;;;;;3.67;2.43;;;6.00;99.90;;;;;;5121861;27;20241;-52
2021/12/13 14:25:35;;;;;;;6.03;3.50;;;6.00;99.90;;;;;;5105998;27;20203;-56
2021/12/13 14:28:23;;;;;;;4.17;2.83;;;6.00;99.90;;;;;;5130170;27;20271;-57
2021/12/13 14:31:20;;;;;;;4.80;2.27;;;6.00;99.90;;;;;;5119769;27;20204;-59
2021/12/13 14:34:06;;;;;;;4.40;2.90;;;5.90;99.90;;;;;;5126259;27;20248;-60
2021/12/13 14:36:55;;;;;;;4.17;2.37;;;5.90;99.90;;;;;;5117505;27;20242;-55
2021/12/13 14:39:45;;;;;;;2.67;2.40;;;5.90;99.90;;;;;;5116165;27;20201;-61
2021/12/13 14:42:31;;;;;;;2.57;2.13;;;5.80;99.90;;;;;;5121087;27;20236;-62
2021/12/13 14:45:19;;;;;;;2.67;2.13;;;5.70;99.90;;;;;;5115604;27;20187;-58
2021/12/13 14:48:04;;;;;;;2.53;1.80;;;5.70;99.90;;;;;;5123242;27;20194;-55
2021/12/13 14:50:56;;;;;;;1.73;1.63;;;5.80;99.90;;;;;;5108242;27;20211;-62
2021/12/13 14:53:43;;;;;;;1.90;1.60;;;5.70;99.90;;;;;;5119197;27;20188;-57
2021/12/13 14:56:28;;;;;;;2.30;1.60;;;5.70;99.90;;;;;;5127337;27;20230;-56
2021/12/13 14:59:13;;;;;;;1.33;1.23;;;5.70;99.90;;;;;;5126387;27;20244;-57
2021/12/13 15:01:58;;;;;;;2.43;2.03;;;5.70;99.90;;;;;;5122661;27;20272;-57
2021/12/13 15:04:43;;;;;;;5.53;2.17;;;5.60;99.90;;;;;;5128844;27;20210;-61
2021/12/13 15:07:34;;;;;;;2.70;2.00;;;5.70;99.90;;;;;;5126325;27;20237;-60
2021/12/13 15:10:30;;;;;;;1.90;1.57;;;5.70;99.90;;;;;;5126153;27;20226;-53
2021/12/13 15:13:17;;;;;;;3.97;1.90;;;5.60;99.90;;;;;;5103962;27;20203;-61
2021/12/13 15:16:06;;;;;;;2.47;2.30;;;5.60;99.90;;;;;;5120385;27;20195;-51
2021/12/13 15:18:54;;;;;;;1.80;1.53;;;5.50;99.90;;;;;;5119203;27;20183;-58
2021/12/13 15:21:52;;;;;;;2.03;1.17;;;5.50;99.90;;;;;;5112419;27;20200;-61